Time;durP1;ratioP1;P1;durP2;ratioP2;P2;SDS_P1;SDS_P2;PMS_P1;PMS_P2;Temp;Humidity;BMP_temperature;BMP_pressure;BME280_temperature;BME280_humidity;BME280_pressure;Samples;Min_cycle;Max_cycle;Signal;HPM_P1;HPM_P2
2022/11/01 00:00:59;;;;;;;;;2.50;2.50;;;;;;;;5086361;28;45460;-71
2022/11/01 00:03:24;;;;;;;;;2.00;2.00;;;;;;;;5082315;28;45444;-75
2022/11/01 00:05:50;;;;;;;;;1.75;1.75;;;;;;;;5079781;28;45263;-72
2022/11/01 00:08:15;;;;;;;;;2.50;2.50;;;;;;;;5080087;28;45464;-78
2022/11/01 00:10:40;;;;;;;;;5.25;5.25;;;;;;;;5084828;28;45337;-74
2022/11/01 00:13:05;;;;;;;;;1.50;1.50;;;;;;;;5088583;28;45290;-68
2022/11/01 00:15:30;;;;;;;;;3.00;3.00;;;;;;;;5084268;28;45432;-67
2022/11/01 00:17:55;;;;;;;;;2.00;2.00;;;;;;;;5081507;28;45339;-77
2022/11/01 00:20:21;;;;;;;;;1.75;1.75;;;;;;;;5080677;28;45440;-71
2022/11/01 00:22:46;;;;;;;;;0.75;0.75;;;;;;;;5080729;28;45487;-71
2022/11/01 00:25:11;;;;;;;;;1.00;1.00;;;;;;;;5080503;28;45392;-77
2022/11/01 00:27:37;;;;;;;;;0.50;0.50;;;;;;;;5081737;28;45370;-80
2022/11/01 00:30:02;;;;;;;;;3.25;3.25;;;;;;;;5085313;28;45590;-77
2022/11/01 00:32:27;;;;;;;;;1.00;1.00;;;;;;;;5082281;28;45285;-78
2022/11/01 00:34:53;;;;;;;;;0.00;0.00;;;;;;;;5078111;28;45500;-75
2022/11/01 00:37:18;;;;;;;;;1.25;1.25;;;;;;;;5078604;28;45286;-70
2022/11/01 00:39:43;;;;;;;;;2.00;2.00;;;;;;;;5078153;28;46069;-73
2022/11/01 00:42:08;;;;;;;;;1.50;1.50;;;;;;;;5077802;28;45472;-66
2022/11/01 00:44:33;;;;;;;;;0.75;0.75;;;;;;;;5078690;28;45355;-70
2022/11/01 00:46:59;;;;;;;;;1.00;1.00;;;;;;;;5079584;28;45540;-68
2022/11/01 00:49:24;;;;;;;;;2.75;2.75;;;;;;;;5081319;28;45615;-79
2022/11/01 00:51:51;;;;;;;;;2.25;2.25;;;;;;;;5080036;28;45318;-77
2022/11/01 00:54:16;;;;;;;;;2.00;2.00;;;;;;;;5079719;28;45258;-75
2022/11/01 00:56:41;;;;;;;;;1.00;1.00;;;;;;;;5114955;27;45213;-76
2022/11/01 00:59:07;;;;;;;;;0.25;0.25;;;;;;;;5083199;28;45271;-65
2022/11/01 01:01:32;;;;;;;;;2.50;1.25;;;;;;;;5078997;28;45457;-70
2022/11/01 01:03:58;;;;;;;;;1.50;1.50;;;;;;;;5112274;27;45219;-70
2022/11/01 01:06:23;;;;;;;;;0.00;0.00;;;;;;;;5078787;28;45239;-69
2022/11/01 01:08:48;;;;;;;;;1.00;1.00;;;;;;;;5079339;28;45301;-68
2022/11/01 01:11:14;;;;;;;;;0.50;0.50;;;;;;;;5078684;28;45301;-73
2022/11/01 01:13:39;;;;;;;;;1.00;1.00;;;;;;;;5078524;28;45444;-71
2022/11/01 01:16:08;;;;;;;;;0.00;0.00;;;;;;;;5080660;28;45423;-69
2022/11/01 01:18:34;;;;;;;;;1.75;1.75;;;;;;;;5080355;28;45927;-78
2022/11/01 01:21:00;;;;;;;;;0.75;0.75;;;;;;;;5078583;28;45332;-78
2022/11/01 01:23:25;;;;;;;;;1.50;1.50;;;;;;;;5078713;28;45274;-71
2022/11/01 01:25:50;;;;;;;;;2.50;2.50;;;;;;;;5077628;28;45477;-72
2022/11/01 01:28:15;;;;;;;;;0.00;0.00;;;;;;;;5077714;28;45879;-78
2022/11/01 01:30:41;;;;;;;;;3.00;3.00;;;;;;;;5077963;28;45187;-75
2022/11/01 01:33:06;;;;;;;;;0.50;0.50;;;;;;;;5077424;28;45332;-72
2022/11/01 01:35:31;;;;;;;;;0.00;0.00;;;;;;;;5077765;28;45197;-77
2022/11/01 01:37:56;;;;;;;;;0.00;0.00;;;;;;;;5114208;27;46999;-74
2022/11/01 01:40:21;;;;;;;;;0.00;0.00;;;;;;;;5079343;28;45403;-71
2022/11/01 01:42:47;;;;;;;;;1.00;1.00;;;;;;;;5078654;28;45267;-71
2022/11/01 01:45:29;;;;;;;;;1.00;1.00;;;;;;;;5078314;28;45163;-67
2022/11/01 01:47:57;;;;;;;;;0.50;0.50;;;;;;;;5078138;28;46072;-72
2022/11/01 01:50:25;;;;;;;;;0.00;0.00;;;;;;;;5077668;28;45248;-68
2022/11/01 01:52:55;;;;;;;;;0.00;0.00;;;;;;;;5077926;28;45278;-73
2022/11/01 01:55:23;;;;;;;;;0.00;0.00;;;;;;;;5078583;28;45178;-71
2022/11/01 01:57:49;;;;;;;;;0.00;0.00;;;;;;;;5078855;28;45401;-75
2022/11/01 02:00:15;;;;;;;;;0.50;0.50;;;;;;;;5080829;28;45283;-77
2022/11/01 02:02:40;;;;;;;;;0.75;0.75;;;;;;;;5080202;28;45424;-71
2022/11/01 02:05:09;;;;;;;;;1.00;1.00;;;;;;;;5089390;28;45576;-79
2022/11/01 02:07:34;;;;;;;;;0.75;0.75;;;;;;;;5082712;28;46301;-71
2022/11/01 02:09:59;;;;;;;;;1.00;0.00;;;;;;;;5080866;28;45298;-74
2022/11/01 02:12:29;;;;;;;;;0.00;0.00;;;;;;;;5113435;27;45434;-76
2022/11/01 02:14:54;;;;;;;;;0.00;0.00;;;;;;;;5092405;28;45180;-76
2022/11/01 02:17:31;;;;;;;;;0.75;0.00;;;;;;;;5088592;28;46293;-79
2022/11/01 02:19:59;;;;;;;;;0.00;0.00;;;;;;;;5079497;28;45337;-76
2022/11/01 02:22:45;;;;;;;;;0.50;0.50;;;;;;;;5078637;28;45232;-74
2022/11/01 02:25:22;;;;;;;;;0.00;0.00;;;;;;;;5076425;28;45272;-76
2022/11/01 02:28:07;;;;;;;;;1.50;1.00;;;;;;;;5078823;28;45301;-75
2022/11/01 02:30:42;;;;;;;;;0.00;0.00;;;;;;;;5079544;28;45327;-77
2022/11/01 02:33:28;;;;;;;;;0.00;0.00;;;;;;;;5079086;28;45264;-77
2022/11/01 02:36:12;;;;;;;;;0.00;0.00;;;;;;;;5080127;28;45402;-78
2022/11/01 02:38:46;;;;;;;;;0.00;0.00;;;;;;;;5086748;27;46337;-77
2022/11/01 02:41:24;;;;;;;;;1.00;1.00;;;;;;;;5083489;28;45171;-76
2022/11/01 02:44:03;;;;;;;;;0.00;0.00;;;;;;;;5116746;27;45345;-77
2022/11/01 02:49:22;;;;;;;;;0.25;0.25;;;;;;;;5078079;28;45284;-66
2022/11/01 02:51:49;;;;;;;;;0.00;0.00;;;;;;;;5077458;28;45421;-66
2022/11/01 02:54:19;;;;;;;;;0.00;0.00;;;;;;;;5077016;28;45353;-75
2022/11/01 02:56:45;;;;;;;;;0.00;0.00;;;;;;;;5076804;28;45492;-65
2022/11/01 02:59:14;;;;;;;;;1.00;1.00;;;;;;;;5077023;28;45359;-71
2022/11/01 03:01:41;;;;;;;;;0.00;0.00;;;;;;;;5077559;28;45661;-75
2022/11/01 03:04:06;;;;;;;;;0.00;0.00;;;;;;;;5077268;28;45226;-73
2022/11/01 03:06:34;;;;;;;;;0.00;0.00;;;;;;;;5077990;28;45544;-76
2022/11/01 03:09:01;;;;;;;;;0.00;0.00;;;;;;;;5079029;28;46101;-76
2022/11/01 03:11:35;;;;;;;;;1.00;1.00;;;;;;;;5077683;28;45311;-67
2022/11/01 03:14:18;;;;;;;;;0.75;0.75;;;;;;;;5077185;28;45345;-68
2022/11/01 03:16:46;;;;;;;;;0.00;0.00;;;;;;;;5077927;27;45458;-70
2022/11/01 03:19:32;;;;;;;;;0.25;0.25;;;;;;;;5081699;28;45374;-72
2022/11/01 03:21:57;;;;;;;;;1.00;1.00;;;;;;;;5066257;28;45392;-71
2022/11/01 03:24:22;;;;;;;;;0.00;0.00;;;;;;;;5077060;28;45314;-78
2022/11/01 03:26:53;;;;;;;;;0.00;0.00;;;;;;;;5076791;28;45436;-66
2022/11/01 03:29:20;;;;;;;;;1.00;1.00;;;;;;;;5077742;28;46068;-70
2022/11/01 03:31:47;;;;;;;;;0.50;0.50;;;;;;;;5085361;28;45536;-71
2022/11/01 03:34:14;;;;;;;;;0.00;0.00;;;;;;;;5079307;28;45390;-74
2022/11/01 03:36:42;;;;;;;;;0.00;0.00;;;;;;;;5077215;28;45273;-70
2022/11/01 03:39:14;;;;;;;;;1.25;1.25;;;;;;;;5076631;28;46288;-69
2022/11/01 03:41:42;;;;;;;;;0.00;0.00;;;;;;;;5076796;28;45294;-68
2022/11/01 03:44:08;;;;;;;;;1.00;1.00;;;;;;;;5076047;28;45371;-67
2022/11/01 03:46:33;;;;;;;;;1.75;1.75;;;;;;;;5076496;28;45401;-77
2022/11/01 03:48:58;;;;;;;;;2.75;1.00;;;;;;;;5076287;28;46237;-77
2022/11/01 03:51:24;;;;;;;;;0.00;0.00;;;;;;;;5076739;28;45306;-78
2022/11/01 03:53:49;;;;;;;;;0.75;0.75;;;;;;;;5079065;28;45337;-77
2022/11/01 03:56:14;;;;;;;;;1.00;1.00;;;;;;;;5110417;27;45117;-77
2022/11/01 03:58:45;;;;;;;;;1.00;1.00;;;;;;;;5080562;28;45266;-74
2022/11/01 04:01:12;;;;;;;;;1.25;1.00;;;;;;;;5087825;28;45204;-74
2022/11/01 04:03:37;;;;;;;;;0.50;0.50;;;;;;;;5079218;28;45396;-77
2022/11/01 04:06:02;;;;;;;;;1.50;1.50;;;;;;;;5076515;28;45927;-70
2022/11/01 04:08:28;;;;;;;;;0.50;0.50;;;;;;;;5108720;27;45370;-75
2022/11/01 04:10:53;;;;;;;;;0.75;0.75;;;;;;;;5076545;28;45810;-74
2022/11/01 04:13:18;;;;;;;;;0.00;0.00;;;;;;;;5081729;28;45357;-77
2022/11/01 04:21:13;;;;;;;;;1.00;1.00;;;;;;;;5077049;28;45231;-75
2022/11/01 04:23:38;;;;;;;;;1.00;1.00;;;;;;;;5056648;28;45213;-73
2022/11/01 04:26:04;;;;;;;;;0.00;0.00;;;;;;;;5055838;28;45206;-74
2022/11/01 04:28:29;;;;;;;;;1.50;1.00;;;;;;;;5055930;28;46262;-72
2022/11/01 04:30:55;;;;;;;;;1.00;1.00;;;;;;;;5055482;28;45297;-72
2022/11/01 04:33:20;;;;;;;;;0.00;0.00;;;;;;;;5065749;28;45370;-67
2022/11/01 04:35:46;;;;;;;;;3.00;2.00;;;;;;;;5056303;28;45406;-68
2022/11/01 04:38:11;;;;;;;;;1.00;1.00;;;;;;;;5055780;28;46720;-67
2022/11/01 04:40:37;;;;;;;;;2.00;2.00;;;;;;;;5055367;28;45365;-67
2022/11/01 04:43:02;;;;;;;;;1.00;1.00;;;;;;;;5055321;28;45270;-67
2022/11/01 04:45:28;;;;;;;;;1.25;1.25;;;;;;;;5056598;28;45385;-67
2022/11/01 04:48:00;;;;;;;;;1.00;1.00;;;;;;;;5054867;28;45271;-70
2022/11/01 04:50:25;;;;;;;;;0.50;0.50;;;;;;;;5054957;28;45423;-66
2022/11/01 04:52:51;;;;;;;;;1.00;1.00;;;;;;;;5056491;28;45363;-75
2022/11/01 04:55:16;;;;;;;;;2.00;2.00;;;;;;;;5056784;28;45339;-75
2022/11/01 04:57:41;;;;;;;;;1.00;1.00;;;;;;;;5058481;28;46299;-73
2022/11/01 05:00:10;;;;;;;;;0.50;0.50;;;;;;;;5058655;28;45435;-78
2022/11/01 05:02:35;;;;;;;;;1.00;1.00;;;;;;;;5064063;28;45382;-77
2022/11/01 05:05:00;;;;;;;;;1.00;1.00;;;;;;;;5066241;28;44750;-77
2022/11/01 05:07:27;;;;;;;;;0.75;0.75;;;;;;;;5062395;28;45404;-77
2022/11/01 05:09:52;;;;;;;;;1.00;1.00;;;;;;;;5061152;28;45271;-73
2022/11/01 05:12:18;;;;;;;;;1.75;1.75;;;;;;;;5058512;28;45498;-74
2022/11/01 05:14:43;;;;;;;;;1.00;1.00;;;;;;;;5058772;28;45296;-73
2022/11/01 05:17:08;;;;;;;;;1.50;0.50;;;;;;;;5058037;28;45493;-76
2022/11/01 05:19:33;;;;;;;;;0.00;0.00;;;;;;;;5040010;28;45354;-75
2022/11/01 05:21:58;;;;;;;;;3.00;1.25;;;;;;;;5067194;28;45395;-75
2022/11/01 05:24:24;;;;;;;;;2.00;2.00;;;;;;;;5079014;28;45447;-75
2022/11/01 05:26:49;;;;;;;;;0.00;0.00;;;;;;;;5078928;28;45387;-74
2022/11/01 05:29:14;;;;;;;;;1.75;1.00;;;;;;;;5079223;28;45349;-75
2022/11/01 05:31:40;;;;;;;;;2.50;2.50;;;;;;;;5082013;28;45393;-77
2022/11/01 05:34:05;;;;;;;;;3.75;3.25;;;;;;;;5080094;28;45540;-76
2022/11/01 05:36:30;;;;;;;;;5.00;5.00;;;;;;;;5078879;28;45318;-74
2022/11/01 05:38:55;;;;;;;;;0.75;0.75;;;;;;;;5079962;28;45347;-73
2022/11/01 05:41:21;;;;;;;;;1.00;1.00;;;;;;;;5082291;28;45240;-74
2022/11/01 05:43:46;;;;;;;;;2.00;2.00;;;;;;;;5089013;28;45275;-74
2022/11/01 05:46:11;;;;;;;;;0.50;0.50;;;;;;;;5082561;28;45449;-75
2022/11/01 05:48:36;;;;;;;;;1.25;1.25;;;;;;;;5079584;28;45256;-75
2022/11/01 05:51:01;;;;;;;;;0.25;0.25;;;;;;;;5081970;28;45430;-75
2022/11/01 05:53:26;;;;;;;;;2.00;2.00;;;;;;;;5116780;27;45561;-76
2022/11/01 05:55:54;;;;;;;;;2.50;2.50;;;;;;;;5081327;28;46378;-74
2022/11/01 05:58:19;;;;;;;;;1.00;1.00;;;;;;;;5081423;28;45370;-69
2022/11/01 06:00:45;;;;;;;;;0.00;0.00;;;;;;;;5086875;28;45335;-76
2022/11/01 06:03:10;;;;;;;;;1.50;1.50;;;;;;;;5079987;28;45375;-69
2022/11/01 06:05:36;;;;;;;;;2.00;2.00;;;;;;;;5079029;28;45429;-72
2022/11/01 06:08:02;;;;;;;;;1.00;1.00;;;;;;;;5077863;28;45393;-69
2022/11/01 06:10:28;;;;;;;;;1.00;1.00;;;;;;;;5079469;28;45314;-73
2022/11/01 06:12:54;;;;;;;;;2.00;2.00;;;;;;;;5081188;28;45576;-67
2022/11/01 06:15:19;;;;;;;;;1.50;1.50;;;;;;;;5079643;28;46052;-68
2022/11/01 06:17:44;;;;;;;;;3.00;2.00;;;;;;;;5082628;28;45350;-72
2022/11/01 06:20:10;;;;;;;;;1.00;1.00;;;;;;;;5084464;28;45647;-70
2022/11/01 06:22:35;;;;;;;;;0.50;0.50;;;;;;;;5088112;28;45289;-77
2022/11/01 06:25:01;;;;;;;;;2.00;2.00;;;;;;;;5083302;28;45372;-72
2022/11/01 06:27:26;;;;;;;;;1.50;1.50;;;;;;;;5084949;28;45321;-75
2022/11/01 06:29:52;;;;;;;;;2.00;2.00;;;;;;;;5081463;28;45340;-73
2022/11/01 06:32:17;;;;;;;;;0.00;0.00;;;;;;;;5077787;28;45476;-72
2022/11/01 06:34:42;;;;;;;;;1.75;1.75;;;;;;;;5075621;28;47619;-72
2022/11/01 06:37:07;;;;;;;;;1.00;1.00;;;;;;;;5093024;27;45479;-74
2022/11/01 06:39:32;;;;;;;;;3.00;1.00;;;;;;;;5077427;28;45306;-75
2022/11/01 06:41:58;;;;;;;;;2.75;2.75;;;;;;;;5078255;28;45553;-71
2022/11/01 06:44:23;;;;;;;;;1.75;1.75;;;;;;;;5082793;28;46309;-73
2022/11/01 06:46:48;;;;;;;;;1.25;1.25;;;;;;;;5085466;28;45294;-78
2022/11/01 06:49:13;;;;;;;;;2.25;1.75;;;;;;;;5078945;28;45173;-76
2022/11/01 06:51:39;;;;;;;;;2.50;2.50;;;;;;;;5077912;28;45258;-76
2022/11/01 06:54:04;;;;;;;;;1.00;1.00;;;;;;;;5078331;28;46036;-75
2022/11/01 06:56:29;;;;;;;;;1.50;1.50;;;;;;;;5077803;28;45351;-73
2022/11/01 06:58:54;;;;;;;;;2.00;2.00;;;;;;;;5077422;28;45403;-76
2022/11/01 07:01:20;;;;;;;;;1.00;1.00;;;;;;;;5077727;28;45456;-77
2022/11/01 07:03:49;;;;;;;;;2.00;2.00;;;;;;;;5109989;27;46324;-82
2022/11/01 07:06:14;;;;;;;;;1.25;1.00;;;;;;;;5076884;28;45337;-76
2022/11/01 07:08:39;;;;;;;;;1.00;1.00;;;;;;;;5076973;28;45172;-74
2022/11/01 07:11:05;;;;;;;;;2.00;2.00;;;;;;;;5092862;27;45334;-73
2022/11/01 07:13:32;;;;;;;;;1.00;1.00;;;;;;;;5076425;28;46834;-76
2022/11/01 07:15:58;;;;;;;;;1.50;1.50;;;;;;;;5075494;27;45331;-72
2022/11/01 07:18:23;;;;;;;;;2.00;2.00;;;;;;;;5089295;27;45635;-71
2022/11/01 07:20:48;;;;;;;;;2.00;2.00;;;;;;;;5096767;27;45358;-73
2022/11/01 07:23:14;;;;;;;;;1.00;1.00;;;;;;;;5094316;27;47301;-72
2022/11/01 07:25:40;;;;;;;;;2.00;2.00;;;;;;;;5089933;27;45264;-71
2022/11/01 07:28:05;;;;;;;;;1.25;1.25;;;;;;;;5102651;27;45223;-73
2022/11/01 07:30:30;;;;;;;;;2.00;2.00;;;;;;;;5082188;27;45334;-72
2022/11/01 07:32:57;;;;;;;;;1.50;1.50;;;;;;;;5088219;27;45342;-73
2022/11/01 07:35:23;;;;;;;;;3.75;2.50;;;;;;;;5097171;27;45237;-75
2022/11/01 07:37:48;;;;;;;;;1.25;1.25;;;;;;;;5079535;27;45303;-72
2022/11/01 07:40:13;;;;;;;;;0.00;0.00;;;;;;;;5094382;27;45978;-72
2022/11/01 07:42:42;;;;;;;;;2.00;2.00;;;;;;;;5095959;27;46091;-73
2022/11/01 07:45:10;;;;;;;;;1.25;1.00;;;;;;;;5094318;27;45498;-70
2022/11/01 07:47:35;;;;;;;;;1.00;1.00;;;;;;;;5095824;27;45263;-70
2022/11/01 07:50:00;;;;;;;;;4.25;3.00;;;;;;;;5094177;27;45475;-73
2022/11/01 07:52:25;;;;;;;;;1.25;1.00;;;;;;;;5101378;27;45952;-71
2022/11/01 07:54:51;;;;;;;;;2.00;2.00;;;;;;;;5095745;27;45186;-72
2022/11/01 07:57:16;;;;;;;;;1.50;1.50;;;;;;;;5094271;27;45232;-70
2022/11/01 07:59:41;;;;;;;;;2.00;2.00;;;;;;;;5096544;27;45193;-70
2022/11/01 08:02:07;;;;;;;;;2.75;2.75;;;;;;;;5096170;27;45334;-70
2022/11/01 08:04:32;;;;;;;;;2.50;2.25;;;;;;;;5095488;27;45568;-70
2022/11/01 08:06:57;;;;;;;;;4.50;4.00;;;;;;;;5095858;27;45385;-70
2022/11/01 08:09:22;;;;;;;;;2.25;2.25;;;;;;;;5096641;27;45247;-71
2022/11/01 08:11:48;;;;;;;;;1.00;1.00;;;;;;;;5095847;27;46121;-72
2022/11/01 08:14:13;;;;;;;;;2.75;2.75;;;;;;;;5096783;27;45209;-71
2022/11/01 08:16:38;;;;;;;;;2.00;2.00;;;;;;;;5096325;27;45329;-72
2022/11/01 08:19:03;;;;;;;;;2.50;2.25;;;;;;;;5096000;27;45517;-76
2022/11/01 08:21:28;;;;;;;;;1.75;1.75;;;;;;;;5095623;27;45895;-72
2022/11/01 08:23:54;;;;;;;;;2.25;2.25;;;;;;;;5096822;27;45313;-75
2022/11/01 08:26:19;;;;;;;;;0.00;0.00;;;;;;;;5097570;27;45323;-72
2022/11/01 08:28:44;;;;;;;;;1.75;1.75;;;;;;;;5103454;27;45580;-73
2022/11/01 08:31:09;;;;;;;;;2.00;2.00;;;;;;;;5101531;27;46356;-76
2022/11/01 08:33:35;;;;;;;;;1.00;1.00;;;;;;;;5100527;27;45203;-75
2022/11/01 08:36:00;;;;;;;;;2.50;2.50;;;;;;;;5101271;27;45270;-76
2022/11/01 08:38:26;;;;;;;;;3.00;3.00;;;;;;;;5102209;27;45364;-75
2022/11/01 08:40:51;;;;;;;;;3.00;2.50;;;;;;;;5099663;27;47333;-71
2022/11/01 08:43:17;;;;;;;;;3.00;3.00;;;;;;;;5098524;27;45298;-75
2022/11/01 08:45:42;;;;;;;;;3.50;3.00;;;;;;;;5100170;27;45253;-75
2022/11/01 08:48:07;;;;;;;;;3.50;3.25;;;;;;;;5101283;27;45492;-75
2022/11/01 08:50:33;;;;;;;;;1.75;1.75;;;;;;;;5099969;27;45253;-77
2022/11/01 08:53:03;;;;;;;;;4.00;4.00;;;;;;;;5100778;27;45398;-76
2022/11/01 08:55:28;;;;;;;;;3.25;3.25;;;;;;;;5107510;27;45228;-75
2022/11/01 08:57:57;;;;;;;;;3.00;3.00;;;;;;;;5111118;27;45215;-74
2022/11/01 09:00:22;;;;;;;;;4.00;4.00;;;;;;;;5099793;27;45765;-76
2022/11/01 09:02:47;;;;;;;;;1.75;1.75;;;;;;;;5099914;27;45373;-74
2022/11/01 09:05:12;;;;;;;;;2.00;2.00;;;;;;;;5099205;27;45452;-75
2022/11/01 09:07:38;;;;;;;;;3.25;3.25;;;;;;;;5099592;27;45590;-75
2022/11/01 09:10:03;;;;;;;;;2.00;2.00;;;;;;;;5098650;27;45554;-74
2022/11/01 09:12:29;;;;;;;;;3.00;3.00;;;;;;;;5100939;27;45354;-74
2022/11/01 09:14:54;;;;;;;;;3.00;3.00;;;;;;;;5098174;27;45470;-74
2022/11/01 09:17:19;;;;;;;;;2.00;2.00;;;;;;;;5097855;27;45229;-76
2022/11/01 09:19:44;;;;;;;;;2.50;2.25;;;;;;;;5099125;27;46344;-75
2022/11/01 09:22:10;;;;;;;;;5.25;3.00;;;;;;;;5101199;27;45362;-74
2022/11/01 09:24:35;;;;;;;;;3.00;3.00;;;;;;;;5100109;27;45381;-73
2022/11/01 09:27:00;;;;;;;;;2.00;2.00;;;;;;;;5099501;27;45301;-73
2022/11/01 09:29:26;;;;;;;;;3.00;3.00;;;;;;;;5098405;27;45307;-73
2022/11/01 09:31:52;;;;;;;;;1.75;1.75;;;;;;;;5099101;27;45318;-75
2022/11/01 09:34:17;;;;;;;;;1.00;1.00;;;;;;;;5102596;27;45234;-73
2022/11/01 09:36:42;;;;;;;;;2.25;2.25;;;;;;;;5101408;27;45209;-73
2022/11/01 09:39:08;;;;;;;;;3.50;3.50;;;;;;;;5102434;27;45400;-78
2022/11/01 09:41:41;;;;;;;;;3.00;1.50;;;;;;;;5103003;27;45441;-76
2022/11/01 09:44:12;;;;;;;;;3.00;3.00;;;;;;;;5101819;27;45341;-75
2022/11/01 09:46:58;;;;;;;;;1.75;1.75;;;;;;;;5101251;27;45420;-75
2022/11/01 09:49:27;;;;;;;;;2.00;2.00;;;;;;;;5102524;27;46325;-73
2022/11/01 09:51:53;;;;;;;;;0.75;0.75;;;;;;;;5103407;27;45223;-76
2022/11/01 09:54:21;;;;;;;;;1.25;1.25;;;;;;;;5101324;27;45366;-75
2022/11/01 09:56:47;;;;;;;;;2.25;2.25;;;;;;;;5101913;27;45189;-72
2022/11/01 09:59:32;;;;;;;;;1.50;1.50;;;;;;;;5100628;27;45438;-76
2022/11/01 10:02:17;;;;;;;;;3.25;3.00;;;;;;;;5101108;27;45293;-76
2022/11/01 10:05:01;;;;;;;;;3.50;2.50;;;;;;;;5099990;27;45329;-76
2022/11/01 10:07:32;;;;;;;;;1.75;1.75;;;;;;;;5101708;27;45398;-76
2022/11/01 10:10:10;;;;;;;;;3.75;2.50;;;;;;;;5104036;27;45368;-74
2022/11/01 10:12:54;;;;;;;;;2.25;2.25;;;;;;;;5101980;27;45376;-76
2022/11/01 10:15:37;;;;;;;;;1.25;1.25;;;;;;;;5098866;27;45359;-74
2022/11/01 10:18:16;;;;;;;;;2.50;2.00;;;;;;;;5101609;27;45521;-76
2022/11/01 10:20:42;;;;;;;;;3.00;3.00;;;;;;;;5107780;27;46218;-71
2022/11/01 10:23:11;;;;;;;;;1.75;1.75;;;;;;;;5102300;27;45250;-73
2022/11/01 10:25:38;;;;;;;;;1.00;1.00;;;;;;;;5101867;27;45372;-73
2022/11/01 10:28:06;;;;;;;;;2.50;2.50;;;;;;;;5101663;27;45536;-73
2022/11/01 10:30:47;;;;;;;;;2.25;2.25;;;;;;;;5100840;27;45651;-74
2022/11/01 10:33:20;;;;;;;;;3.00;3.00;;;;;;;;5100057;27;45411;-73
2022/11/01 10:35:50;;;;;;;;;2.50;2.50;;;;;;;;5098856;27;45182;-73
2022/11/01 10:38:18;;;;;;;;;3.00;3.00;;;;;;;;5099180;27;45447;-71
2022/11/01 10:40:50;;;;;;;;;2.00;2.00;;;;;;;;5097954;27;45458;-69
2022/11/01 10:43:18;;;;;;;;;7.00;7.00;;;;;;;;5098194;27;45343;-75
2022/11/01 10:45:45;;;;;;;;;2.75;2.75;;;;;;;;5098599;27;45297;-73
2022/11/01 10:48:31;;;;;;;;;3.75;3.75;;;;;;;;5099592;27;45576;-74
2022/11/01 10:50:59;;;;;;;;;6.00;5.75;;;;;;;;5100642;27;46219;-75
2022/11/01 10:53:26;;;;;;;;;2.50;2.50;;;;;;;;5097483;27;45356;-73
2022/11/01 10:55:56;;;;;;;;;1.75;1.75;;;;;;;;5100384;27;45347;-75
2022/11/01 10:58:33;;;;;;;;;2.75;2.75;;;;;;;;5100264;27;45251;-74
2022/11/01 11:01:00;;;;;;;;;1.75;1.25;;;;;;;;5098188;27;46228;-74
2022/11/01 11:03:28;;;;;;;;;4.25;4.25;;;;;;;;5099207;27;45557;-74
2022/11/01 11:05:54;;;;;;;;;5.00;5.00;;;;;;;;5099241;27;45360;-73
2022/11/01 11:08:21;;;;;;;;;3.50;3.50;;;;;;;;5102947;27;45317;-74
2022/11/01 11:10:47;;;;;;;;;5.25;5.00;;;;;;;;5099221;27;45283;-73
2022/11/01 11:13:19;;;;;;;;;2.25;2.25;;;;;;;;5098258;27;45293;-75
2022/11/01 11:15:47;;;;;;;;;5.25;4.00;;;;;;;;5101609;27;45254;-76
2022/11/01 11:18:34;;;;;;;;;8.00;6.25;;;;;;;;5100718;27;45553;-76
2022/11/01 11:21:03;;;;;;;;;3.00;3.00;;;;;;;;5098878;27;47992;-76
2022/11/01 11:23:31;;;;;;;;;2.00;2.00;;;;;;;;5098949;27;45454;-75
2022/11/01 11:26:29;;;;;;;;;2.00;2.00;;;;;;;;5097745;27;45267;-75
2022/11/01 11:28:55;;;;;;;;;12.50;11.50;;;;;;;;5087628;27;45536;-76
2022/11/01 11:31:24;;;;;;;;;3.25;3.25;;;;;;;;5098932;27;45430;-74
2022/11/01 11:33:50;;;;;;;;;2.00;2.00;;;;;;;;5099263;27;45433;-74
2022/11/01 11:36:17;;;;;;;;;2.00;2.00;;;;;;;;5098523;27;45319;-71
2022/11/01 11:38:44;;;;;;;;;1.50;1.50;;;;;;;;5103525;27;45200;-77
2022/11/01 11:41:10;;;;;;;;;3.75;3.50;;;;;;;;5098897;27;46366;-77
2022/11/01 11:43:39;;;;;;;;;2.25;2.00;;;;;;;;5098961;27;45329;-76
2022/11/01 11:46:13;;;;;;;;;3.00;3.00;;;;;;;;5098803;27;45329;-73
2022/11/01 11:48:45;;;;;;;;;4.00;4.00;;;;;;;;5102615;27;45534;-77
2022/11/01 11:51:10;;;;;;;;;3.00;3.00;;;;;;;;5101420;27;45541;-76
2022/11/01 11:53:36;;;;;;;;;4.00;4.00;;;;;;;;5098568;27;45431;-75
2022/11/01 11:56:02;;;;;;;;;8.00;8.00;;;;;;;;5098167;27;45281;-73
2022/11/01 11:58:32;;;;;;;;;4.75;4.75;;;;;;;;5097332;27;45514;-74
2022/11/01 12:01:01;;;;;;;;;3.00;3.00;;;;;;;;5097234;27;45383;-76
2022/11/01 12:03:27;;;;;;;;;2.00;2.00;;;;;;;;5097396;27;45487;-75
2022/11/01 12:05:54;;;;;;;;;1.00;1.00;;;;;;;;5096052;27;45345;-75
2022/11/01 12:08:25;;;;;;;;;4.75;4.75;;;;;;;;5097378;27;45314;-74
2022/11/01 12:10:55;;;;;;;;;5.25;3.50;;;;;;;;5096411;27;45380;-75
2022/11/01 12:13:26;;;;;;;;;4.00;4.00;;;;;;;;5094303;27;45364;-76
2022/11/01 12:16:05;;;;;;;;;2.00;2.00;;;;;;;;5101476;27;45429;-75
2022/11/01 12:18:30;;;;;;;;;4.00;4.00;;;;;;;;5102228;27;45350;-71
2022/11/01 12:20:55;;;;;;;;;1.75;1.75;;;;;;;;5096212;27;46374;-74
2022/11/01 12:23:23;;;;;;;;;3.00;3.00;;;;;;;;5095801;27;45271;-75
2022/11/01 12:25:49;;;;;;;;;5.25;5.25;;;;;;;;5097412;27;45251;-71
2022/11/01 12:28:18;;;;;;;;;4.50;3.00;;;;;;;;5096254;27;45269;-72
2022/11/01 12:30:45;;;;;;;;;2.25;2.25;;;;;;;;5095533;27;46681;-72
2022/11/01 12:33:19;;;;;;;;;2.00;2.00;;;;;;;;5096060;27;45325;-73
2022/11/01 12:35:45;;;;;;;;;1.00;1.00;;;;;;;;5096373;27;45400;-76
2022/11/01 12:38:28;;;;;;;;;3.50;3.50;;;;;;;;5097527;27;45420;-76
2022/11/01 12:40:55;;;;;;;;;3.75;3.75;;;;;;;;5094651;27;46044;-75
2022/11/01 12:43:26;;;;;;;;;3.25;3.25;;;;;;;;5095435;27;45333;-72
2022/11/01 12:45:57;;;;;;;;;3.75;3.25;;;;;;;;5095867;27;45409;-75
2022/11/01 12:48:27;;;;;;;;;2.00;2.00;;;;;;;;5094634;27;45301;-76
2022/11/01 12:51:12;;;;;;;;;3.25;2.25;;;;;;;;5098342;27;45914;-77
2022/11/01 12:53:41;;;;;;;;;5.00;5.00;;;;;;;;5098504;27;45402;-76
2022/11/01 12:56:06;;;;;;;;;1.50;1.50;;;;;;;;5098730;27;45275;-76
2022/11/01 12:58:32;;;;;;;;;5.00;5.00;;;;;;;;5099815;27;45267;-73
2022/11/01 13:01:06;;;;;;;;;3.00;2.00;;;;;;;;5099089;27;46232;-75
2022/11/01 13:03:37;;;;;;;;;5.25;4.50;;;;;;;;5097090;27;45227;-70
2022/11/01 13:06:18;;;;;;;;;2.00;2.00;;;;;;;;5095835;27;45333;-72
2022/11/01 13:09:06;;;;;;;;;2.75;2.75;;;;;;;;5095862;27;45520;-72
2022/11/01 13:11:58;;;;;;;;;4.75;4.75;;;;;;;;5094770;27;45408;-72
2022/11/01 13:14:54;;;;;;;;;4.00;3.75;;;;;;;;5094949;27;45191;-70
2022/11/01 13:17:19;;;;;;;;;1.75;1.75;;;;;;;;5077561;27;45524;-71
2022/11/01 13:19:55;;;;;;;;;4.00;3.75;;;;;;;;5098468;27;45226;-72
2022/11/01 13:22:23;;;;;;;;;8.00;7.25;;;;;;;;5098606;27;46158;-75
2022/11/01 13:24:59;;;;;;;;;2.00;2.00;;;;;;;;5098300;27;45320;-76
2022/11/01 13:27:47;;;;;;;;;2.50;2.50;;;;;;;;5098819;27;45312;-76
2022/11/01 13:30:22;;;;;;;;;5.00;4.75;;;;;;;;5101228;27;45322;-75
2022/11/01 13:33:10;;;;;;;;;4.00;4.00;;;;;;;;5101392;27;46085;-76
2022/11/01 13:35:46;;;;;;;;;5.25;5.25;;;;;;;;5099859;27;45270;-72
2022/11/01 13:38:12;;;;;;;;;3.75;3.75;;;;;;;;5097679;27;45345;-75
2022/11/01 13:40:57;;;;;;;;;4.00;4.00;;;;;;;;5097913;27;45436;-78
2022/11/01 13:43:33;;;;;;;;;3.25;3.25;;;;;;;;5098100;27;46230;-76
2022/11/01 13:45:58;;;;;;;;;2.50;2.50;;;;;;;;5098242;27;45422;-76
2022/11/01 13:48:32;;;;;;;;;3.00;3.00;;;;;;;;5100248;27;45321;-76
2022/11/01 13:50:57;;;;;;;;;2.50;2.50;;;;;;;;5099294;27;45308;-76
2022/11/01 13:53:22;;;;;;;;;4.75;4.75;;;;;;;;5097249;27;45340;-73
2022/11/01 13:55:54;;;;;;;;;2.00;2.00;;;;;;;;5098262;27;45251;-76
2022/11/01 13:58:20;;;;;;;;;4.25;4.25;;;;;;;;5098490;27;45306;-73
2022/11/01 14:00:50;;;;;;;;;2.00;2.00;;;;;;;;5098247;27;45463;-73
2022/11/01 14:03:21;;;;;;;;;2.25;2.25;;;;;;;;5098220;27;46140;-75
2022/11/01 14:06:07;;;;;;;;;2.75;1.00;;;;;;;;5098502;27;45327;-75
2022/11/01 14:08:36;;;;;;;;;2.00;2.00;;;;;;;;5099050;27;45415;-73
2022/11/01 14:11:01;;;;;;;;;1.75;1.75;;;;;;;;5101372;27;45211;-76
2022/11/01 14:13:32;;;;;;;;;4.00;4.00;;;;;;;;5099048;27;45266;-75
2022/11/01 14:16:00;;;;;;;;;1.75;1.75;;;;;;;;5097931;27;45313;-76
2022/11/01 14:18:25;;;;;;;;;3.00;3.00;;;;;;;;5098891;27;45382;-73
2022/11/01 14:20:51;;;;;;;;;1.00;1.00;;;;;;;;5100901;27;45186;-71
2022/11/01 14:23:30;;;;;;;;;2.00;2.00;;;;;;;;5096440;27;47410;-73
2022/11/01 14:26:14;;;;;;;;;1.50;1.50;;;;;;;;5097804;27;45225;-73
2022/11/01 14:28:43;;;;;;;;;4.00;4.00;;;;;;;;5097600;27;45368;-72
2022/11/01 14:31:08;;;;;;;;;4.25;4.25;;;;;;;;5097188;27;45510;-71
2022/11/01 14:33:34;;;;;;;;;2.00;2.00;;;;;;;;5099000;27;46286;-72
2022/11/01 14:36:01;;;;;;;;;3.00;3.00;;;;;;;;5099434;27;45417;-71
2022/11/01 14:38:30;;;;;;;;;1.75;1.75;;;;;;;;5098326;27;45273;-74
2022/11/01 14:40:57;;;;;;;;;1.50;1.50;;;;;;;;5100608;27;45440;-75
2022/11/01 14:43:26;;;;;;;;;2.50;2.50;;;;;;;;5096881;27;45481;-72
2022/11/01 14:46:01;;;;;;;;;2.00;2.00;;;;;;;;5099010;27;45223;-72
2022/11/01 14:48:31;;;;;;;;;1.50;1.50;;;;;;;;5098486;27;45271;-71
2022/11/01 14:51:15;;;;;;;;;2.50;2.50;;;;;;;;5097981;27;45338;-77
2022/11/01 14:53:41;;;;;;;;;4.00;4.00;;;;;;;;5098225;27;46453;-71
2022/11/01 14:56:13;;;;;;;;;3.00;3.00;;;;;;;;5098369;27;45355;-72
2022/11/01 14:58:38;;;;;;;;;2.50;2.50;;;;;;;;5097486;27;45259;-74